Swampscott, MA (01907)

5:47 PM EST on March 05, 2015 (GMT -0500)
APRSWXNET Swampscott MA US | Change Station
CLOSE
Current Station
Personal Weather Station
Location: Swampscott, MA
Elevation: 82 ft
Nearby Weather Stations

Elev 82 ft 42.47 °N, 70.91 °W | Updated 31 minutes ago

Overcast
Overcast
24 °F
Feels Like 24 °F
N
3
Wind Variable Wind from NNW
Gusts 13.0 mph

Today
High -- | Low -- °F
--% Chance of Precip.
Yesterday
High -- | Low -- °F
Precip. -- in
6:13 AM 5:37 PM
Full, 100% visible
Pressure 30.11 in
Visibility 10.0 miles
Clouds Overcast 9500 ft
Windchill 24 °F
Dew Point 6 °F
Humidity 45%
Rainfall in
Snow Depth Not available.
UV 0 out of 12
Pollen .40 out of 12
Air Quality Not available.
Flu Activity Not available.
METAR KBVY 052153Z 33011KT 10SM OVC095 M05/M16 A3012 RMK AO2 SLP195 T10501161

More Conditions Fewer Conditions

Pressure 30.11 in
Visibility 10.0 miles
Clouds Overcast 9500 ft
Windchill 24 °F
Dew Point 6 °F
Humidity 45%
Rainfall in
Snow Depth Not available.
UV 0 out of 12
Pollen .40 out of 12
Air Quality Not available.
Flu Activity Not available.
METAR KBVY 052153Z 33011KT 10SM OVC095 M05/M16 A3012 RMK AO2 SLP195 T10501161

More Conditions Fewer Conditions

10-Day Weather Forecast

Almanac

Astronomy

Mar. 05, 2015 Rise Set
Actual Time
Civil Twilight
Nautical Twilight
Astronomical Twilight
Moon
Length of Visible Light
Length of Day
Tomorrow will be .
, % of the Moon is Illuminated

Today's Extremes

State Highs State Lows

Community

WunderPhotos

Upload Photos

1,803,036 photos uploaded!

WunderBlogs® & News

Nearby

Air Quality

  Air Quality AQ Index Pollutant
Not available.

Snow Depth

Station Depth Elevation

Earthquake Activity

City Distance Mag. Time & Date
Minimum magnitude displayed is 2.5.

Coastal Water Temperatures

Place Temperature

Nearby Weather Stations